sensor_id;sensor_type;location;lat;lon;timestamp;temperature;humidity
1225;DHT22;602;48.000;7.840;2023-10-08T00:00:24;17.00;99.90
1225;DHT22;602;48.000;7.840;2023-10-08T00:03:10;17.00;99.90
1225;DHT22;602;48.000;7.840;2023-10-08T00:05:37;16.80;99.90
1225;DHT22;602;48.000;7.840;2023-10-08T00:08:05;17.00;99.90
1225;DHT22;602;48.000;7.840;2023-10-08T00:10:35;17.00;99.90
1225;DHT22;602;48.000;7.840;2023-10-08T00:13:03;17.00;99.90
1225;DHT22;602;48.000;7.840;2023-10-08T00:15:33;17.00;99.90
1225;DHT22;602;48.000;7.840;2023-10-08T00:18:02;16.90;99.90
1225;DHT22;602;48.000;7.840;2023-10-08T00:20:32;16.90;99.90
1225;DHT22;602;48.000;7.840;2023-10-08T00:23:08;16.80;99.90
1225;DHT22;602;48.000;7.840;2023-10-08T00:25:35;16.80;99.90
1225;DHT22;602;48.000;7.840;2023-10-08T00:28:07;16.80;99.90
1225;DHT22;602;48.000;7.840;2023-10-08T00:30:38;16.80;99.90
1225;DHT22;602;48.000;7.840;2023-10-08T00:33:05;16.70;99.90
1225;DHT22;602;48.000;7.840;2023-10-08T00:35:38;16.80;99.90
1225;DHT22;602;48.000;7.840;2023-10-08T00:38:06;16.90;99.90
1225;DHT22;602;48.000;7.840;2023-10-08T00:40:37;17.00;99.90
1225;DHT22;602;48.000;7.840;2023-10-08T00:43:05;16.90;99.90
1225;DHT22;602;48.000;7.840;2023-10-08T00:45:36;16.80;99.90
1225;DHT22;602;48.000;7.840;2023-10-08T00:48:08;16.80;99.90
1225;DHT22;602;48.000;7.840;2023-10-08T00:50:38;16.80;99.90
1225;DHT22;602;48.000;7.840;2023-10-08T00:53:09;16.90;99.90
1225;DHT22;602;48.000;7.840;2023-10-08T00:55:47;16.80;99.90
1225;DHT22;602;48.000;7.840;2023-10-08T00:58:20;16.80;99.80
1225;DHT22;602;48.000;7.840;2023-10-08T01:00:53;16.90;99.90
1225;DHT22;602;48.000;7.840;2023-10-08T01:03:25;17.00;99.90
1225;DHT22;602;48.000;7.840;2023-10-08T01:05:54;17.00;99.90
1225;DHT22;602;48.000;7.840;2023-10-08T01:08:21;17.00;99.90
1225;DHT22;602;48.000;7.840;2023-10-08T01:11:19;17.10;99.90
1225;DHT22;602;48.000;7.840;2023-10-08T01:13:47;17.10;99.90
1225;DHT22;602;48.000;7.840;2023-10-08T01:16:15;17.10;99.90
1225;DHT22;602;48.000;7.840;2023-10-08T01:18:43;17.10;99.50
1225;DHT22;602;48.000;7.840;2023-10-08T01:21:17;17.10;98.60
1225;DHT22;602;48.000;7.840;2023-10-08T01:24:01;17.00;98.60
1225;DHT22;602;48.000;7.840;2023-10-08T01:26:31;17.00;98.70
1225;DHT22;602;48.000;7.840;2023-10-08T01:28:58;17.00;98.90
1225;DHT22;602;48.000;7.840;2023-10-08T01:31:28;17.00;99.00
1225;DHT22;602;48.000;7.840;2023-10-08T01:33:55;17.00;99.00
1225;DHT22;602;48.000;7.840;2023-10-08T01:36:23;17.00;99.30
1225;DHT22;602;48.000;7.840;2023-10-08T01:38:50;17.00;99.70
1225;DHT22;602;48.000;7.840;2023-10-08T01:41:21;16.90;99.90
1225;DHT22;602;48.000;7.840;2023-10-08T01:43:55;16.90;99.90
1225;DHT22;602;48.000;7.840;2023-10-08T01:46:24;16.90;99.90
1225;DHT22;602;48.000;7.840;2023-10-08T01:48:52;16.90;99.90
1225;DHT22;602;48.000;7.840;2023-10-08T01:51:26;16.80;99.90
1225;DHT22;602;48.000;7.840;2023-10-08T01:54:02;16.90;99.90
1225;DHT22;602;48.000;7.840;2023-10-08T01:56:38;16.80;99.90
1225;DHT22;602;48.000;7.840;2023-10-08T01:59:07;16.70;99.90
1225;DHT22;602;48.000;7.840;2023-10-08T02:01:35;16.70;99.90
1225;DHT22;602;48.000;7.840;2023-10-08T02:04:04;16.60;99.90
1225;DHT22;602;48.000;7.840;2023-10-08T02:06:32;16.50;99.90
1225;DHT22;602;48.000;7.840;2023-10-08T02:08:58;16.50;99.90
1225;DHT22;602;48.000;7.840;2023-10-08T02:11:31;16.50;99.90
1225;DHT22;602;48.000;7.840;2023-10-08T02:13:59;16.50;99.90
1225;DHT22;602;48.000;7.840;2023-10-08T02:16:27;16.50;99.90
1225;DHT22;602;48.000;7.840;2023-10-08T02:18:54;16.50;99.90
1225;DHT22;602;48.000;7.840;2023-10-08T02:21:21;16.40;99.90
1225;DHT22;602;48.000;7.840;2023-10-08T02:23:47;16.40;99.90
1225;DHT22;602;48.000;7.840;2023-10-08T02:26:14;16.40;99.90
1225;DHT22;602;48.000;7.840;2023-10-08T02:28:41;16.40;99.90
1225;DHT22;602;48.000;7.840;2023-10-08T02:31:09;16.40;99.90
1225;DHT22;602;48.000;7.840;2023-10-08T02:33:36;16.40;99.90
1225;DHT22;602;48.000;7.840;2023-10-08T02:36:04;16.40;99.90
1225;DHT22;602;48.000;7.840;2023-10-08T02:38:30;16.40;99.90
1225;DHT22;602;48.000;7.840;2023-10-08T02:41:03;16.40;99.90
1225;DHT22;602;48.000;7.840;2023-10-08T02:43:32;16.40;99.90
1225;DHT22;602;48.000;7.840;2023-10-08T02:45:59;16.30;99.90
1225;DHT22;602;48.000;7.840;2023-10-08T02:48:28;16.30;99.90
1225;DHT22;602;48.000;7.840;2023-10-08T02:50:55;16.30;99.90
1225;DHT22;602;48.000;7.840;2023-10-08T02:53:32;16.30;99.90
1225;DHT22;602;48.000;7.840;2023-10-08T02:55:59;16.30;99.90
1225;DHT22;602;48.000;7.840;2023-10-08T02:58:27;16.20;99.90
1225;DHT22;602;48.000;7.840;2023-10-08T03:00:56;16.30;99.90
1225;DHT22;602;48.000;7.840;2023-10-08T03:03:23;16.30;99.90
1225;DHT22;602;48.000;7.840;2023-10-08T03:05:52;16.30;99.90
1225;DHT22;602;48.000;7.840;2023-10-08T03:08:22;16.40;99.90
1225;DHT22;602;48.000;7.840;2023-10-08T03:10:50;16.30;99.90
1225;DHT22;602;48.000;7.840;2023-10-08T03:13:21;16.20;99.90
1225;DHT22;602;48.000;7.840;2023-10-08T03:15:48;16.30;99.90
1225;DHT22;602;48.000;7.840;2023-10-08T03:18:33;16.30;99.90
1225;DHT22;602;48.000;7.840;2023-10-08T03:21:03;16.30;99.90
1225;DHT22;602;48.000;7.840;2023-10-08T03:23:39;16.20;99.90
1225;DHT22;602;48.000;7.840;2023-10-08T03:26:13;16.20;99.90
1225;DHT22;602;48.000;7.840;2023-10-08T03:28:59;16.10;99.90
1225;DHT22;602;48.000;7.840;2023-10-08T03:31:30;16.10;99.90
1225;DHT22;602;48.000;7.840;2023-10-08T03:34:16;16.10;99.90
1225;DHT22;602;48.000;7.840;2023-10-08T03:36:47;16.20;99.90
1225;DHT22;602;48.000;7.840;2023-10-08T03:39:15;16.20;99.90
1225;DHT22;602;48.000;7.840;2023-10-08T03:41:44;16.20;99.90
1225;DHT22;602;48.000;7.840;2023-10-08T03:44:25;16.20;99.90
1225;DHT22;602;48.000;7.840;2023-10-08T03:46:55;16.10;99.90
1225;DHT22;602;48.000;7.840;2023-10-08T03:49:22;16.00;99.90
1225;DHT22;602;48.000;7.840;2023-10-08T03:51:55;16.00;99.90
1225;DHT22;602;48.000;7.840;2023-10-08T03:54:23;15.90;99.90
1225;DHT22;602;48.000;7.840;2023-10-08T03:56:59;16.00;99.90
1225;DHT22;602;48.000;7.840;2023-10-08T03:59:26;15.80;99.90
1225;DHT22;602;48.000;7.840;2023-10-08T04:01:57;15.80;99.90
1225;DHT22;602;48.000;7.840;2023-10-08T04:04:34;15.70;99.90
1225;DHT22;602;48.000;7.840;2023-10-08T04:07:16;15.70;99.90
1225;DHT22;602;48.000;7.840;2023-10-08T04:09:54;15.70;99.90
1225;DHT22;602;48.000;7.840;2023-10-08T04:12:42;15.70;99.90
1225;DHT22;602;48.000;7.840;2023-10-08T04:15:13;15.60;99.90
1225;DHT22;602;48.000;7.840;2023-10-08T04:17:42;15.50;99.90
1225;DHT22;602;48.000;7.840;2023-10-08T04:20:11;15.50;99.90
1225;DHT22;602;48.000;7.840;2023-10-08T04:23:00;15.50;99.90
1225;DHT22;602;48.000;7.840;2023-10-08T04:25:28;15.40;99.90
1225;DHT22;602;48.000;7.840;2023-10-08T04:27:55;15.40;99.90
1225;DHT22;602;48.000;7.840;2023-10-08T04:30:24;15.40;99.90
1225;DHT22;602;48.000;7.840;2023-10-08T04:32:58;15.40;99.90
1225;DHT22;602;48.000;7.840;2023-10-08T04:35:32;15.40;99.90
1225;DHT22;602;48.000;7.840;2023-10-08T04:38:03;15.30;99.90
1225;DHT22;602;48.000;7.840;2023-10-08T04:40:30;15.20;99.90
1225;DHT22;602;48.000;7.840;2023-10-08T04:43:06;15.20;99.90
1225;DHT22;602;48.000;7.840;2023-10-08T04:45:36;15.10;99.90
1225;DHT22;602;48.000;7.840;2023-10-08T04:48:04;15.10;99.90
1225;DHT22;602;48.000;7.840;2023-10-08T04:50:35;15.00;99.90
1225;DHT22;602;48.000;7.840;2023-10-08T04:53:04;14.90;99.90
1225;DHT22;602;48.000;7.840;2023-10-08T04:55:34;14.80;99.90
1225;DHT22;602;48.000;7.840;2023-10-08T04:58:01;14.80;99.90
1225;DHT22;602;48.000;7.840;2023-10-08T05:00:37;14.80;99.90
1225;DHT22;602;48.000;7.840;2023-10-08T05:03:19;14.80;99.90
1225;DHT22;602;48.000;7.840;2023-10-08T05:05:48;14.90;99.90
1225;DHT22;602;48.000;7.840;2023-10-08T05:08:34;14.90;99.90
1225;DHT22;602;48.000;7.840;2023-10-08T05:11:13;14.90;99.90
1225;DHT22;602;48.000;7.840;2023-10-08T05:14:02;14.90;99.90
1225;DHT22;602;48.000;7.840;2023-10-08T05:16:41;14.90;99.90
1225;DHT22;602;48.000;7.840;2023-10-08T05:19:25;14.90;99.90
1225;DHT22;602;48.000;7.840;2023-10-08T05:22:14;14.90;99.90
1225;DHT22;602;48.000;7.840;2023-10-08T05:24:46;14.90;99.90
1225;DHT22;602;48.000;7.840;2023-10-08T05:27:33;14.90;99.90
1225;DHT22;602;48.000;7.840;2023-10-08T05:30:21;14.80;99.90
1225;DHT22;602;48.000;7.840;2023-10-08T05:32:54;14.70;99.90
1225;DHT22;602;48.000;7.840;2023-10-08T05:35:39;14.60;99.90
1225;DHT22;602;48.000;7.840;2023-10-08T05:38:23;14.70;99.90
1225;DHT22;602;48.000;7.840;2023-10-08T05:41:05;14.70;99.90
1225;DHT22;602;48.000;7.840;2023-10-08T05:43:38;14.70;99.90
1225;DHT22;602;48.000;7.840;2023-10-08T05:46:37;14.70;99.90
1225;DHT22;602;48.000;7.840;2023-10-08T05:49:14;14.60;99.90
1225;DHT22;602;48.000;7.840;2023-10-08T05:52:04;14.70;99.90
1225;DHT22;602;48.000;7.840;2023-10-08T05:54:48;14.60;99.90
1225;DHT22;602;48.000;7.840;2023-10-08T05:57:41;14.70;99.90
1225;DHT22;602;48.000;7.840;2023-10-08T06:00:13;14.70;99.90
1225;DHT22;602;48.000;7.840;2023-10-08T06:02:55;14.60;99.90
1225;DHT22;602;48.000;7.840;2023-10-08T06:05:35;14.60;99.90
1225;DHT22;602;48.000;7.840;2023-10-08T06:08:12;14.70;99.90
1225;DHT22;602;48.000;7.840;2023-10-08T06:10:41;14.70;99.90
1225;DHT22;602;48.000;7.840;2023-10-08T06:13:23;14.60;99.90
1225;DHT22;602;48.000;7.840;2023-10-08T06:16:11;14.60;99.90
1225;DHT22;602;48.000;7.840;2023-10-08T06:18:56;14.60;99.90
1225;DHT22;602;48.000;7.840;2023-10-08T06:21:21;14.60;99.90
1225;DHT22;602;48.000;7.840;2023-10-08T06:23:48;14.60;99.90
1225;DHT22;602;48.000;7.840;2023-10-08T06:26:19;14.70;99.90
1225;DHT22;602;48.000;7.840;2023-10-08T06:28:51;14.70;99.90
1225;DHT22;602;48.000;7.840;2023-10-08T06:31:22;14.70;99.90
1225;DHT22;602;48.000;7.840;2023-10-08T06:33:50;14.70;99.90
1225;DHT22;602;48.000;7.840;2023-10-08T06:36:18;14.70;99.90
1225;DHT22;602;48.000;7.840;2023-10-08T06:38:49;14.80;99.90
1225;DHT22;602;48.000;7.840;2023-10-08T06:41:17;14.70;99.90
1225;DHT22;602;48.000;7.840;2023-10-08T06:43:45;14.70;99.90
1225;DHT22;602;48.000;7.840;2023-10-08T06:46:17;14.70;99.90
1225;DHT22;602;48.000;7.840;2023-10-08T06:48:46;14.70;99.90
1225;DHT22;602;48.000;7.840;2023-10-08T06:51:15;14.80;99.90
1225;DHT22;602;48.000;7.840;2023-10-08T06:53:45;14.70;99.90
1225;DHT22;602;48.000;7.840;2023-10-08T06:56:12;14.70;99.90
1225;DHT22;602;48.000;7.840;2023-10-08T06:58:41;14.70;99.90
1225;DHT22;602;48.000;7.840;2023-10-08T07:01:11;14.80;99.90
1225;DHT22;602;48.000;7.840;2023-10-08T07:03:40;14.80;99.90
1225;DHT22;602;48.000;7.840;2023-10-08T07:06:07;14.90;99.90
1225;DHT22;602;48.000;7.840;2023-10-08T07:08:52;15.00;99.90
1225;DHT22;602;48.000;7.840;2023-10-08T07:11:20;15.10;99.90
1225;DHT22;602;48.000;7.840;2023-10-08T07:13:48;15.20;99.90
1225;DHT22;602;48.000;7.840;2023-10-08T07:16:17;15.30;99.90
1225;DHT22;602;48.000;7.840;2023-10-08T07:18:46;15.50;99.90
1225;DHT22;602;48.000;7.840;2023-10-08T07:21:19;15.70;99.90
1225;DHT22;602;48.000;7.840;2023-10-08T07:23:54;16.00;99.90
1225;DHT22;602;48.000;7.840;2023-10-08T07:26:23;16.10;99.90
1225;DHT22;602;48.000;7.840;2023-10-08T07:28:51;16.30;99.90
1225;DHT22;602;48.000;7.840;2023-10-08T07:31:19;16.40;99.90
1225;DHT22;602;48.000;7.840;2023-10-08T07:33:49;16.60;99.90
1225;DHT22;602;48.000;7.840;2023-10-08T07:36:22;16.80;99.90
1225;DHT22;602;48.000;7.840;2023-10-08T07:38:50;16.90;99.90
1225;DHT22;602;48.000;7.840;2023-10-08T07:41:18;17.20;99.90
1225;DHT22;602;48.000;7.840;2023-10-08T07:43:46;17.40;99.90
1225;DHT22;602;48.000;7.840;2023-10-08T07:46:18;17.60;99.90
1225;DHT22;602;48.000;7.840;2023-10-08T07:48:45;17.90;99.90
1225;DHT22;602;48.000;7.840;2023-10-08T07:51:15;18.20;99.90
1225;DHT22;602;48.000;7.840;2023-10-08T07:53:43;18.40;99.90
1225;DHT22;602;48.000;7.840;2023-10-08T07:56:10;18.60;99.90
1225;DHT22;602;48.000;7.840;2023-10-08T07:58:37;18.80;99.90
1225;DHT22;602;48.000;7.840;2023-10-08T08:01:05;19.00;99.90
1225;DHT22;602;48.000;7.840;2023-10-08T08:03:32;19.20;99.90
1225;DHT22;602;48.000;7.840;2023-10-08T08:06:02;19.40;99.90
1225;DHT22;602;48.000;7.840;2023-10-08T08:08:33;19.60;99.90
1225;DHT22;602;48.000;7.840;2023-10-08T08:11:01;19.70;99.90
1225;DHT22;602;48.000;7.840;2023-10-08T08:13:32;19.80;99.90
1225;DHT22;602;48.000;7.840;2023-10-08T08:16:00;19.90;99.90
1225;DHT22;602;48.000;7.840;2023-10-08T08:18:36;20.10;99.90
1225;DHT22;602;48.000;7.840;2023-10-08T08:21:03;20.50;99.90
1225;DHT22;602;48.000;7.840;2023-10-08T08:23:30;20.80;99.90
1225;DHT22;602;48.000;7.840;2023-10-08T08:25:59;21.10;99.90
1225;DHT22;602;48.000;7.840;2023-10-08T08:28:39;21.30;99.90
1225;DHT22;602;48.000;7.840;2023-10-08T08:31:06;21.60;99.90
1225;DHT22;602;48.000;7.840;2023-10-08T08:33:42;21.90;99.90
1225;DHT22;602;48.000;7.840;2023-10-08T08:36:26;22.00;99.90
1225;DHT22;602;48.000;7.840;2023-10-08T08:38:53;22.40;99.90
1225;DHT22;602;48.000;7.840;2023-10-08T08:41:22;22.60;99.90
1225;DHT22;602;48.000;7.840;2023-10-08T08:43:50;22.80;99.90
1225;DHT22;602;48.000;7.840;2023-10-08T08:46:26;23.00;99.90
1225;DHT22;602;48.000;7.840;2023-10-08T08:48:54;23.30;99.90
1225;DHT22;602;48.000;7.840;2023-10-08T08:51:22;23.50;99.90
1225;DHT22;602;48.000;7.840;2023-10-08T08:53:49;23.80;99.90
1225;DHT22;602;48.000;7.840;2023-10-08T08:56:18;24.00;99.90
1225;DHT22;602;48.000;7.840;2023-10-08T08:58:46;24.20;99.90
1225;DHT22;602;48.000;7.840;2023-10-08T09:01:14;24.40;99.90
1225;DHT22;602;48.000;7.840;2023-10-08T09:03:43;24.70;99.90
1225;DHT22;602;48.000;7.840;2023-10-08T09:06:13;24.80;99.90
1225;DHT22;602;48.000;7.840;2023-10-08T09:08:40;25.10;99.90
1225;DHT22;602;48.000;7.840;2023-10-08T09:11:14;25.20;99.90
1225;DHT22;602;48.000;7.840;2023-10-08T09:13:41;25.40;99.90
1225;DHT22;602;48.000;7.840;2023-10-08T09:16:12;25.40;99.90
1225;DHT22;602;48.000;7.840;2023-10-08T09:18:41;25.60;99.90
1225;DHT22;602;48.000;7.840;2023-10-08T09:21:10;25.60;99.90
1225;DHT22;602;48.000;7.840;2023-10-08T09:23:41;25.70;99.90
1225;DHT22;602;48.000;7.840;2023-10-08T09:26:13;25.90;99.90
1225;DHT22;602;48.000;7.840;2023-10-08T09:28:40;26.00;99.90
1225;DHT22;602;48.000;7.840;2023-10-08T09:31:14;25.90;99.90
1225;DHT22;602;48.000;7.840;2023-10-08T09:33:43;25.90;99.90
1225;DHT22;602;48.000;7.840;2023-10-08T09:36:19;25.90;99.90
1225;DHT22;602;48.000;7.840;2023-10-08T09:38:46;25.80;99.90
1225;DHT22;602;48.000;7.840;2023-10-08T09:41:15;25.90;99.90
1225;DHT22;602;48.000;7.840;2023-10-08T09:43:42;25.90;99.90
1225;DHT22;602;48.000;7.840;2023-10-08T09:46:16;26.20;99.90
1225;DHT22;602;48.000;7.840;2023-10-08T09:48:49;26.30;99.90
1225;DHT22;602;48.000;7.840;2023-10-08T09:51:18;26.60;99.90
1225;DHT22;602;48.000;7.840;2023-10-08T09:53:52;26.80;99.90
1225;DHT22;602;48.000;7.840;2023-10-08T09:56:20;27.00;99.90
1225;DHT22;602;48.000;7.840;2023-10-08T09:58:48;27.20;99.90
1225;DHT22;602;48.000;7.840;2023-10-08T10:01:19;27.30;99.90
1225;DHT22;602;48.000;7.840;2023-10-08T10:03:47;27.00;99.00
1225;DHT22;602;48.000;7.840;2023-10-08T10:06:15;27.00;99.50
1225;DHT22;602;48.000;7.840;2023-10-08T10:08:43;27.20;99.80
1225;DHT22;602;48.000;7.840;2023-10-08T10:11:10;27.40;99.90
1225;DHT22;602;48.000;7.840;2023-10-08T10:13:42;27.60;98.90
1225;DHT22;602;48.000;7.840;2023-10-08T10:16:10;27.40;98.50
1225;DHT22;602;48.000;7.840;2023-10-08T10:18:43;27.40;99.40
1225;DHT22;602;48.000;7.840;2023-10-08T10:21:26;27.40;98.60
1225;DHT22;602;48.000;7.840;2023-10-08T10:23:53;27.40;99.50
1225;DHT22;602;48.000;7.840;2023-10-08T10:26:24;27.30;99.90
1225;DHT22;602;48.000;7.840;2023-10-08T10:29:20;27.30;99.80
1225;DHT22;602;48.000;7.840;2023-10-08T10:31:48;27.30;99.50
1225;DHT22;602;48.000;7.840;2023-10-08T10:34:21;27.30;99.90
1225;DHT22;602;48.000;7.840;2023-10-08T10:36:51;27.30;99.90
1225;DHT22;602;48.000;7.840;2023-10-08T10:39:25;27.20;99.90
1225;DHT22;602;48.000;7.840;2023-10-08T10:41:53;27.30;99.90
1225;DHT22;602;48.000;7.840;2023-10-08T10:44:23;27.30;99.90
1225;DHT22;602;48.000;7.840;2023-10-08T10:46:50;27.20;99.90
1225;DHT22;602;48.000;7.840;2023-10-08T10:49:17;27.40;99.90
1225;DHT22;602;48.000;7.840;2023-10-08T10:51:49;27.30;99.90
1225;DHT22;602;48.000;7.840;2023-10-08T10:54:23;27.40;99.40
1225;DHT22;602;48.000;7.840;2023-10-08T10:56:49;27.60;99.40
1225;DHT22;602;48.000;7.840;2023-10-08T10:59:29;27.30;97.80
1225;DHT22;602;48.000;7.840;2023-10-08T11:02:02;27.40;97.20
1225;DHT22;602;48.000;7.840;2023-10-08T11:04:34;27.60;96.80
1225;DHT22;602;48.000;7.840;2023-10-08T11:07:15;27.80;95.20
1225;DHT22;602;48.000;7.840;2023-10-08T11:09:43;28.10;94.40
1225;DHT22;602;48.000;7.840;2023-10-08T11:12:13;28.40;93.50
1225;DHT22;602;48.000;7.840;2023-10-08T11:14:49;28.60;94.60
1225;DHT22;602;48.000;7.840;2023-10-08T11:17:24;28.90;92.60
1225;DHT22;602;48.000;7.840;2023-10-08T11:19:52;29.10;91.10
1225;DHT22;602;48.000;7.840;2023-10-08T11:22:20;28.90;91.30
1225;DHT22;602;48.000;7.840;2023-10-08T11:24:48;28.80;90.30
1225;DHT22;602;48.000;7.840;2023-10-08T11:27:19;28.60;91.30
1225;DHT22;602;48.000;7.840;2023-10-08T11:29:56;28.20;91.70
1225;DHT22;602;48.000;7.840;2023-10-08T11:32:24;28.50;91.60
1225;DHT22;602;48.000;7.840;2023-10-08T11:34:55;28.50;90.60
1225;DHT22;602;48.000;7.840;2023-10-08T11:37:29;28.80;89.30
1225;DHT22;602;48.000;7.840;2023-10-08T11:39:56;29.10;89.60
1225;DHT22;602;48.000;7.840;2023-10-08T11:42:24;29.50;90.30
1225;DHT22;602;48.000;7.840;2023-10-08T11:45:10;29.70;89.50
1225;DHT22;602;48.000;7.840;2023-10-08T11:47:50;29.70;87.40
1225;DHT22;602;48.000;7.840;2023-10-08T11:50:23;30.00;88.10
1225;DHT22;602;48.000;7.840;2023-10-08T11:52:58;30.30;87.00
1225;DHT22;602;48.000;7.840;2023-10-08T11:55:28;30.60;87.20
1225;DHT22;602;48.000;7.840;2023-10-08T11:57:56;30.70;85.90
1225;DHT22;602;48.000;7.840;2023-10-08T12:00:23;30.90;85.60
1225;DHT22;602;48.000;7.840;2023-10-08T12:02:52;30.70;83.50
1225;DHT22;602;48.000;7.840;2023-10-08T12:05:21;30.50;84.60
1225;DHT22;602;48.000;7.840;2023-10-08T12:07:51;30.80;84.90
1225;DHT22;602;48.000;7.840;2023-10-08T12:10:20;31.30;83.10
1225;DHT22;602;48.000;7.840;2023-10-08T12:12:49;31.30;80.40
1225;DHT22;602;48.000;7.840;2023-10-08T12:15:18;31.60;81.90
1225;DHT22;602;48.000;7.840;2023-10-08T12:17:49;31.70;78.80
1225;DHT22;602;48.000;7.840;2023-10-08T12:20:30;31.80;77.70
1225;DHT22;602;48.000;7.840;2023-10-08T12:23:00;32.00;78.10
1225;DHT22;602;48.000;7.840;2023-10-08T12:25:28;32.10;75.80
1225;DHT22;602;48.000;7.840;2023-10-08T12:27:58;32.00;73.30
1225;DHT22;602;48.000;7.840;2023-10-08T12:30:28;31.90;72.50
1225;DHT22;602;48.000;7.840;2023-10-08T12:32:58;31.90;73.20
1225;DHT22;602;48.000;7.840;2023-10-08T12:35:25;31.90;73.70
1225;DHT22;602;48.000;7.840;2023-10-08T12:37:52;31.70;73.20
1225;DHT22;602;48.000;7.840;2023-10-08T12:40:20;31.90;73.00
1225;DHT22;602;48.000;7.840;2023-10-08T12:42:50;31.90;74.50
1225;DHT22;602;48.000;7.840;2023-10-08T12:45:17;31.90;75.90
1225;DHT22;602;48.000;7.840;2023-10-08T12:47:48;32.10;77.90
1225;DHT22;602;48.000;7.840;2023-10-08T12:50:16;32.00;75.20
1225;DHT22;602;48.000;7.840;2023-10-08T12:52:49;32.20;74.30
1225;DHT22;602;48.000;7.840;2023-10-08T12:55:21;32.70;75.70
1225;DHT22;602;48.000;7.840;2023-10-08T12:57:52;32.90;75.20
1225;DHT22;602;48.000;7.840;2023-10-08T13:00:22;32.80;75.10
1225;DHT22;602;48.000;7.840;2023-10-08T13:02:50;32.90;73.50
1225;DHT22;602;48.000;7.840;2023-10-08T13:05:20;32.90;67.90
1225;DHT22;602;48.000;7.840;2023-10-08T13:07:54;33.00;67.40
1225;DHT22;602;48.000;7.840;2023-10-08T13:10:21;33.00;67.10
1225;DHT22;602;48.000;7.840;2023-10-08T13:12:48;33.20;69.40
1225;DHT22;602;48.000;7.840;2023-10-08T13:15:16;33.40;69.90
1225;DHT22;602;48.000;7.840;2023-10-08T13:17:43;33.20;68.40
1225;DHT22;602;48.000;7.840;2023-10-08T13:20:12;32.80;69.30
1225;DHT22;602;48.000;7.840;2023-10-08T13:22:40;32.90;70.30
1225;DHT22;602;48.000;7.840;2023-10-08T13:25:09;33.10;70.80
1225;DHT22;602;48.000;7.840;2023-10-08T13:27:37;33.20;70.40
1225;DHT22;602;48.000;7.840;2023-10-08T13:30:06;33.40;69.80
1225;DHT22;602;48.000;7.840;2023-10-08T13:32:35;33.40;68.40
1225;DHT22;602;48.000;7.840;2023-10-08T13:35:03;33.30;67.20
1225;DHT22;602;48.000;7.840;2023-10-08T13:37:33;33.30;66.20
1225;DHT22;602;48.000;7.840;2023-10-08T13:40:01;33.30;65.80
1225;DHT22;602;48.000;7.840;2023-10-08T13:42:28;33.00;62.50
1225;DHT22;602;48.000;7.840;2023-10-08T13:44:55;33.00;64.70
1225;DHT22;602;48.000;7.840;2023-10-08T13:47:24;32.70;65.70
1225;DHT22;602;48.000;7.840;2023-10-08T13:49:55;32.80;64.70
1225;DHT22;602;48.000;7.840;2023-10-08T13:52:24;32.90;63.90
1225;DHT22;602;48.000;7.840;2023-10-08T13:54:52;32.70;60.40
1225;DHT22;602;48.000;7.840;2023-10-08T13:57:19;32.40;58.90
1225;DHT22;602;48.000;7.840;2023-10-08T13:59:46;31.80;59.60
1225;DHT22;602;48.000;7.840;2023-10-08T14:02:13;31.80;61.70
1225;DHT22;602;48.000;7.840;2023-10-08T14:04:41;32.00;61.00
1225;DHT22;602;48.000;7.840;2023-10-08T14:07:10;32.10;62.00
1225;DHT22;602;48.000;7.840;2023-10-08T14:09:42;32.20;62.10
1225;DHT22;602;48.000;7.840;2023-10-08T14:12:11;32.20;63.70
1225;DHT22;602;48.000;7.840;2023-10-08T14:14:39;32.30;64.30
1225;DHT22;602;48.000;7.840;2023-10-08T14:17:09;32.40;64.90
1225;DHT22;602;48.000;7.840;2023-10-08T14:19:40;32.30;62.80
1225;DHT22;602;48.000;7.840;2023-10-08T14:22:13;32.20;64.10
1225;DHT22;602;48.000;7.840;2023-10-08T14:24:40;32.10;65.30
1225;DHT22;602;48.000;7.840;2023-10-08T14:27:10;32.00;65.50
1225;DHT22;602;48.000;7.840;2023-10-08T14:29:37;31.80;60.90
1225;DHT22;602;48.000;7.840;2023-10-08T14:32:06;31.80;61.10
1225;DHT22;602;48.000;7.840;2023-10-08T14:34:38;31.60;59.10
1225;DHT22;602;48.000;7.840;2023-10-08T14:37:24;31.60;59.80
1225;DHT22;602;48.000;7.840;2023-10-08T14:40:09;31.60;60.80
1225;DHT22;602;48.000;7.840;2023-10-08T14:42:53;31.50;63.60
1225;DHT22;602;48.000;7.840;2023-10-08T14:45:22;31.40;62.30
1225;DHT22;602;48.000;7.840;2023-10-08T14:47:52;31.40;62.40
1225;DHT22;602;48.000;7.840;2023-10-08T14:50:20;31.40;64.40
1225;DHT22;602;48.000;7.840;2023-10-08T14:52:49;31.20;61.00
1225;DHT22;602;48.000;7.840;2023-10-08T14:55:16;31.10;61.30
1225;DHT22;602;48.000;7.840;2023-10-08T14:57:42;31.00;64.20
1225;DHT22;602;48.000;7.840;2023-10-08T15:00:10;31.00;63.30
1225;DHT22;602;48.000;7.840;2023-10-08T15:02:37;31.00;63.90
1225;DHT22;602;48.000;7.840;2023-10-08T15:05:04;30.90;63.70
1225;DHT22;602;48.000;7.840;2023-10-08T15:07:32;30.90;65.20
1225;DHT22;602;48.000;7.840;2023-10-08T15:10:00;30.80;66.30
1225;DHT22;602;48.000;7.840;2023-10-08T15:12:27;30.80;67.30
1225;DHT22;602;48.000;7.840;2023-10-08T15:14:57;30.50;66.10
1225;DHT22;602;48.000;7.840;2023-10-08T15:17:23;30.40;66.30
1225;DHT22;602;48.000;7.840;2023-10-08T15:19:51;30.30;68.20
1225;DHT22;602;48.000;7.840;2023-10-08T15:22:22;30.20;67.60
1225;DHT22;602;48.000;7.840;2023-10-08T15:24:48;29.90;66.00
1225;DHT22;602;48.000;7.840;2023-10-08T15:27:17;29.80;65.20
1225;DHT22;602;48.000;7.840;2023-10-08T15:29:45;29.60;65.30
1225;DHT22;602;48.000;7.840;2023-10-08T15:32:11;29.30;64.50
1225;DHT22;602;48.000;7.840;2023-10-08T15:34:38;29.40;67.10
1225;DHT22;602;48.000;7.840;2023-10-08T15:37:07;29.50;67.70
1225;DHT22;602;48.000;7.840;2023-10-08T15:39:33;29.50;67.80
1225;DHT22;602;48.000;7.840;2023-10-08T15:42:00;29.50;68.30
1225;DHT22;602;48.000;7.840;2023-10-08T15:44:28;29.50;69.20
1225;DHT22;602;48.000;7.840;2023-10-08T15:46:55;29.50;69.70
1225;DHT22;602;48.000;7.840;2023-10-08T15:49:22;29.40;69.90
1225;DHT22;602;48.000;7.840;2023-10-08T15:51:49;29.30;70.50
1225;DHT22;602;48.000;7.840;2023-10-08T15:54:16;29.30;71.30
1225;DHT22;602;48.000;7.840;2023-10-08T15:56:46;29.20;72.50
1225;DHT22;602;48.000;7.840;2023-10-08T15:59:13;29.10;72.70
1225;DHT22;602;48.000;7.840;2023-10-08T16:01:41;29.00;73.20
1225;DHT22;602;48.000;7.840;2023-10-08T16:04:12;29.00;74.90
1225;DHT22;602;48.000;7.840;2023-10-08T16:06:38;28.90;74.70
1225;DHT22;602;48.000;7.840;2023-10-08T16:09:05;28.90;74.40
1225;DHT22;602;48.000;7.840;2023-10-08T16:11:32;28.80;75.90
1225;DHT22;602;48.000;7.840;2023-10-08T16:14:00;28.70;77.40
1225;DHT22;602;48.000;7.840;2023-10-08T16:16:27;28.70;79.40
1225;DHT22;602;48.000;7.840;2023-10-08T16:18:55;28.60;81.70
1225;DHT22;602;48.000;7.840;2023-10-08T16:21:22;28.50;82.60
1225;DHT22;602;48.000;7.840;2023-10-08T16:23:49;28.40;83.10
1225;DHT22;602;48.000;7.840;2023-10-08T16:26:15;28.20;83.70
1225;DHT22;602;48.000;7.840;2023-10-08T16:28:44;28.10;83.70
1225;DHT22;602;48.000;7.840;2023-10-08T16:31:11;28.00;85.00
1225;DHT22;602;48.000;7.840;2023-10-08T16:33:38;27.60;87.20
1225;DHT22;602;48.000;7.840;2023-10-08T16:36:06;27.30;88.70
1225;DHT22;602;48.000;7.840;2023-10-08T16:38:35;27.00;90.00
1225;DHT22;602;48.000;7.840;2023-10-08T16:41:02;26.70;90.70